AirNav   Air Wisconsin pilot careers
 
 1366 users online  

1XS1 Dunham Field Airport
Crosby, Texas, USA

GOING TO CROSBY?


FAA INFORMATION EFFECTIVE 29 MARCH 2018

Location

FAA Identifier: 1XS1
Lat/Long: 29-56-17.8050N / 095-02-47.3400W
29-56.296750N / 095-02.789000W
29.9382792 / -95.0464833
(estimated)
Elevation: 60 ft. / 18 m (estimated)
Variation: 05E (1995)
From city: 2 miles NE of CROSBY, TX
Time zone: UTC -5 (UTC -6 during Standard Time)
Zip code: 77532

Airport Operations

Airport use: Private use. Permission required prior to landing
Activation date: 12/1997
Control tower: no
ARTCC: HOUSTON CENTER
FSS: MONTGOMERY COUNTY FLIGHT SERVICE STATION
Attendance: DAYLIGHT HOURS
Wind indicator: yes
Segmented circle: no
Lights: ACTVT LIRL RY 09/27 - 122.75.

Airport Communications

WX ASOS at IAH (16 nm W): PHONE 281-443-6397

Nearby radio navigation aids

VOR radial/distance  VOR name  Freq  Var
IAHr089/15.6HUMBLE VORTAC116.6005E
HUBr030/20.8HOBBY VOR/DME117.1005E
DASr229/25.7DAISETTA VORTAC116.9005E
MHFr319/28.2TRINITY VOR/DME113.6007E

 
NDB name  Hdg/Dist  Freq  Var  ID
NIXIN106/9.432605EBVP -... ...- .--.
GALVESTON329/39.320608EGLS --. .-.. ...

Airport Services

Fuel available: 100LL

Runway Information

Runway 9/27

Dimensions: 2700 x 100 ft. / 823 x 30 m
Surface: turf
Runway edge lights: low intensity
RUNWAY 9  RUNWAY 27
Latitude: 29-56.292167N29-56.301333N
Longitude: 095-03.044667W095-02.533333W
Elevation: 58.0 ft.57.0 ft.
Traffic pattern: leftleft
Runway heading: 084 magnetic, 089 true264 magnetic, 269 true
Obstructions: 40 ft. treesnone

Airport Ownership and Management from official FAA records

Ownership: Privately-owned
Owner: RICHARD N. DUNHAM
17806 RAMSEY ROAD
CROSBY, TX 77532
Phone 281-328-3024
Manager: TERRY D. DUNHAM
17818 RAMSEY ROAD
CROSBY, TX 77532
Phone 832-524-0383

Airport Operational Statistics

Aircraft based on the field: 28
Single engine airplanes: 24
Ultralights: 4
    

Additional Remarks

ULTRALIGHT ACTIVITY ON ARPT.
LND ON RY 27 & DEP ON RY 09.

Instrument Procedures

There are no published instrument procedures at 1XS1.

Some nearby airports with instrument procedures:

KHPY - Baytown Airport (10 nm SE)
54T - RWJ Airpark (15 nm SE)
KIAH - George Bush Intercontinental/Houston Airport (16 nm W)
T41 - La Porte Municipal Airport (16 nm S)
T78 - Liberty Municipal Airport (20 nm NE)
 
Loc | Ops | Rwys | IFR | FBO | Links
Com | Nav | Svcs | Stats | Notes

AirNav Hotels Sweepstakes
 
Area around 1XS1 (Dunham Field Airport)
 
Road maps at: MapQuest Bing Google
 
Aerial photo
WARNING: Photo may not be current or correct
Aerial photo of 1XS1 (Dunham Field Airport)
Looking toward the northwest

Do you have a better or more recent aerial photo of Dunham Field Airport that you would like to share? If so, please send us your photo.

 
Sectional chart

 
Airport distance calculator
Flying to Dunham Field Airport? Find the distance to fly.

From to 1XS1

Sunrise and sunset
Times for 19-Apr-2018
 Local
(UTC-5)
 Zulu
(UTC)
Morning civil twilight06:2511:25
Sunrise06:5011:50
Sunset19:4900:49
Evening civil twilight20:1301:13

Current date and time
Zulu (UTC)  19-Apr-2018 21:23:54
Local (UTC-5)  19-Apr-2018 16:23:54
 
METAR
KIAH 
17nm W 
192053Z 04013KT 10SM FEW250 25/05 A3021 RMK AO2 SLP230 T02500050 58021
KEFD 
21nm S 
192050Z 34009KT 10SM FEW250 23/04 A3021
KHOU 
22nm SW 
192053Z 01009G16KT 10SM FEW250 25/04 A3020 RMK AO2 SLP230 T02500039 56023
K6R3 
25nm N 
192055Z AUTO 02006KT 7SM CLR 23/01 A3023 RMK AO2 T02330009
KDWH 
27nm W 
192053Z 36009G16KT 10SM CLR 25/04 A3021 RMK AO2 SLP227 T02500039 58024
KLVJ 
27nm SW 
192053Z AUTO 02012KT 10SM CLR 26/02 A3021 RMK AO2 SLP230 T02560022 58020
KCXO 
31nm NW 
192053Z 02008G16KT 10SM CLR 24/05 A3022 RMK AO2 SLP229 T02390050 58024
TAF
KIAH 
17nm W 
191958Z 1920/2024 36010G20KT P6SM SCT250 FM192200 02010KT P6SM FEW250 FM201500 09013KT P6SM SCT250
KEFD 
21nm S 
191856Z 1918/2018 03012KT 9999 SCT050 QNH3013INS BECMG 1923/1924 04009KT 9999 FEW200 QNH3019INS BECMG 2014/2015 07010G15KT 9999 SCT160 QNH3025INS TX24/1922Z TN13/2012Z
NOTAMs
Click for the latest NOTAMs
NOTAMs are issued by the DoD/FAA and will open in a separate window not controlled by AirNav.

 

 
 

Would you like to see your business listed on this page?

 If your business provides an interesting product or service to pilots, flight crews, aircraft, or users of the Dunham Field Airport, you should consider listing it here.  To start the listing process, click on the button below
 
Add a business
 

Other Pages about Dunham Field Airport

Update a link
 
Copyright © AirNav, LLC. All rights reserved. Privacy Policy  Contact